createdAt,value
2018-03-27T00:00:52.337Z,99.90
2018-03-27T00:03:19.416Z,99.90
2018-03-27T00:05:45.748Z,99.90
2018-03-27T00:08:12.146Z,99.90
2018-03-27T00:10:38.496Z,99.90
2018-03-27T00:13:05.175Z,99.90
2018-03-27T00:15:31.502Z,99.90
2018-03-27T00:17:57.852Z,99.90
2018-03-27T00:20:24.215Z,99.90
2018-03-27T00:22:50.545Z,99.90
2018-03-27T00:25:16.924Z,99.90
2018-03-27T00:27:55.627Z,99.90
2018-03-27T00:30:41.044Z,99.90
2018-03-27T00:33:26.162Z,99.90
2018-03-27T00:36:10.876Z,99.90
2018-03-27T00:38:55.630Z,99.90
2018-03-27T00:44:40.507Z,99.90
2018-03-27T00:47:07.516Z,99.90
2018-03-27T00:49:33.756Z,99.90
2018-03-27T00:52:00.101Z,99.90
2018-03-27T00:54:27.178Z,99.90
2018-03-27T00:56:54.272Z,99.90
2018-03-27T00:59:20.601Z,99.90
2018-03-27T01:01:46.959Z,99.90
2018-03-27T01:04:13.300Z,99.90
2018-03-27T01:06:39.598Z,99.90
2018-03-27T01:09:05.966Z,99.90
2018-03-27T01:11:33.082Z,99.90
2018-03-27T01:14:00.171Z,99.90
2018-03-27T01:16:27.276Z,99.90
2018-03-27T01:18:53.807Z,99.90
2018-03-27T01:21:20.133Z,99.90
2018-03-27T01:23:46.456Z,99.90
2018-03-27T01:26:12.801Z,99.90
2018-03-27T01:28:39.143Z,99.90
2018-03-27T01:31:05.480Z,99.90
2018-03-27T01:33:31.791Z,99.90
2018-03-27T01:35:58.148Z,99.90
2018-03-27T01:38:24.476Z,99.90
2018-03-27T01:40:50.826Z,99.90
2018-03-27T01:43:17.879Z,99.90
2018-03-27T01:45:45.614Z,99.90
2018-03-27T01:48:12.511Z,99.90
2018-03-27T01:50:38.811Z,99.90
2018-03-27T01:53:05.895Z,99.90
2018-03-27T01:55:32.249Z,99.90
2018-03-27T01:57:58.607Z,99.90
2018-03-27T02:00:25.644Z,99.90
2018-03-27T02:02:51.980Z,99.90
2018-03-27T02:05:19.084Z,99.90
2018-03-27T02:07:45.411Z,99.90
2018-03-27T02:10:11.711Z,99.90
2018-03-27T02:12:44.271Z,99.90
2018-03-27T02:15:17.432Z,99.90
2018-03-27T02:17:50.008Z,99.90
2018-03-27T02:20:22.504Z,99.90
2018-03-27T02:22:48.998Z,99.90
2018-03-27T02:25:15.338Z,99.90
2018-03-27T02:27:41.652Z,99.90
2018-03-27T02:30:08.013Z,99.90
2018-03-27T02:32:35.067Z,99.90
2018-03-27T02:35:02.493Z,99.90
2018-03-27T02:37:28.816Z,99.90
2018-03-27T02:39:55.130Z,99.90
2018-03-27T02:42:21.503Z,99.90
2018-03-27T02:44:48.809Z,99.90
2018-03-27T02:47:15.160Z,99.90
2018-03-27T02:49:41.512Z,99.90
2018-03-27T02:52:07.884Z,99.90
2018-03-27T02:54:34.254Z,99.90
2018-03-27T02:57:00.553Z,99.90
2018-03-27T02:59:26.883Z,99.90
2018-03-27T03:01:53.252Z,99.90
2018-03-27T03:04:19.653Z,99.90
2018-03-27T03:06:46.010Z,99.90
2018-03-27T03:09:12.370Z,99.90
2018-03-27T03:11:39.002Z,99.90
2018-03-27T03:14:06.102Z,99.90
2018-03-27T03:16:32.430Z,99.90
2018-03-27T03:18:58.770Z,99.90
2018-03-27T03:21:25.128Z,99.90
2018-03-27T03:23:51.477Z,99.90
2018-03-27T03:26:17.816Z,99.90
2018-03-27T03:28:44.216Z,99.90
2018-03-27T03:31:10.492Z,99.90
2018-03-27T03:33:37.156Z,99.90
2018-03-27T03:36:03.483Z,99.90
2018-03-27T03:38:29.820Z,99.90
2018-03-27T03:40:57.671Z,99.90
2018-03-27T03:43:23.960Z,99.90
2018-03-27T03:45:50.282Z,99.90
2018-03-27T03:48:17.360Z,99.90
2018-03-27T03:50:43.715Z,99.90
2018-03-27T03:53:10.058Z,99.90
2018-03-27T03:55:36.363Z,99.90
2018-03-27T03:58:02.692Z,99.90
2018-03-27T04:00:29.000Z,99.90
2018-03-27T04:02:55.341Z,99.90
2018-03-27T04:05:21.675Z,99.90
2018-03-27T04:07:48.334Z,99.90
2018-03-27T04:10:14.639Z,99.90
2018-03-27T04:12:40.988Z,99.90
2018-03-27T04:15:07.376Z,99.90
2018-03-27T04:17:34.428Z,99.90
2018-03-27T04:20:00.937Z,99.90
2018-03-27T04:22:28.733Z,99.90
2018-03-27T04:24:55.047Z,99.90
2018-03-27T04:27:22.259Z,99.90
2018-03-27T04:29:48.570Z,99.90
2018-03-27T04:32:14.878Z,99.90
2018-03-27T04:34:41.211Z,99.90
2018-03-27T04:37:07.518Z,99.90
2018-03-27T04:39:33.859Z,99.90
2018-03-27T04:42:00.206Z,99.90
2018-03-27T04:44:26.572Z,99.90
2018-03-27T04:46:52.903Z,99.90
2018-03-27T04:49:19.257Z,99.90
2018-03-27T04:51:46.484Z,99.90
2018-03-27T04:54:12.815Z,99.90
2018-03-27T04:56:39.146Z,99.90
2018-03-27T04:59:05.497Z,99.90
2018-03-27T05:01:32.570Z,99.90
2018-03-27T05:03:58.933Z,99.90
2018-03-27T05:06:25.320Z,99.90
2018-03-27T05:08:51.670Z,99.90
2018-03-27T05:11:18.037Z,99.90
2018-03-27T05:13:44.375Z,99.90
2018-03-27T05:16:10.890Z,99.90
2018-03-27T05:18:37.200Z,99.90
2018-03-27T05:21:03.521Z,99.90
2018-03-27T05:23:29.856Z,99.90
2018-03-27T05:25:56.167Z,99.90
2018-03-27T05:28:22.524Z,99.90
2018-03-27T05:30:48.926Z,99.90
2018-03-27T05:33:15.357Z,99.90
2018-03-27T05:35:42.426Z,99.90
2018-03-27T05:38:08.781Z,99.90
2018-03-27T05:40:35.139Z,99.90
2018-03-27T05:43:01.741Z,99.90
2018-03-27T05:45:28.075Z,99.90
2018-03-27T05:47:54.410Z,99.90
2018-03-27T05:50:20.775Z,99.90
2018-03-27T05:52:48.289Z,99.90
2018-03-27T05:55:14.610Z,99.90
2018-03-27T05:57:40.928Z,99.90
2018-03-27T06:00:07.533Z,99.90
2018-03-27T06:02:33.896Z,99.90
2018-03-27T06:05:00.262Z,99.90
2018-03-27T06:07:26.580Z,99.90
2018-03-27T06:09:52.938Z,99.90
2018-03-27T06:12:19.994Z,99.90
2018-03-27T06:14:47.420Z,99.90
2018-03-27T06:17:17.150Z,99.90
2018-03-27T06:19:43.474Z,99.90
2018-03-27T06:22:09.817Z,99.90
2018-03-27T06:24:36.184Z,99.90
2018-03-27T06:27:02.522Z,99.90
2018-03-27T06:29:28.895Z,99.90
2018-03-27T06:31:55.206Z,99.90
2018-03-27T06:34:23.050Z,99.90
2018-03-27T06:36:49.395Z,99.90
2018-03-27T06:39:15.744Z,99.90
2018-03-27T06:41:42.844Z,99.90
2018-03-27T06:44:09.142Z,99.90
2018-03-27T06:46:35.484Z,99.90
2018-03-27T06:49:01.817Z,99.90
2018-03-27T06:51:28.514Z,99.90
2018-03-27T06:53:54.826Z,99.90
2018-03-27T06:56:21.160Z,99.90
2018-03-27T06:58:47.510Z,99.90
2018-03-27T07:01:14.939Z,99.90
2018-03-27T07:03:41.281Z,99.90
2018-03-27T07:06:07.591Z,99.90
2018-03-27T07:08:33.918Z,99.90
2018-03-27T07:11:00.293Z,99.90
2018-03-27T07:13:26.627Z,99.90
2018-03-27T07:15:53.698Z,99.90
2018-03-27T07:18:20.078Z,99.90
2018-03-27T07:20:46.431Z,99.90
2018-03-27T07:23:12.736Z,99.90
2018-03-27T07:25:39.094Z,99.90
2018-03-27T07:28:06.148Z,99.90
2018-03-27T07:30:33.199Z,99.90
2018-03-27T07:33:00.291Z,99.90
2018-03-27T07:35:26.619Z,99.90
2018-03-27T07:37:52.955Z,99.90
2018-03-27T07:40:19.350Z,99.90
2018-03-27T07:42:45.845Z,99.90
2018-03-27T07:45:12.909Z,99.90
2018-03-27T07:47:39.959Z,99.90
2018-03-27T07:50:06.313Z,99.90
2018-03-27T07:52:32.650Z,99.90
2018-03-27T07:54:59.010Z,99.90
2018-03-27T07:58:26.438Z,99.90
2018-03-27T08:01:54.287Z,99.90
2018-03-27T08:04:21.332Z,99.90
2018-03-27T08:06:47.655Z,99.90
2018-03-27T08:09:14.721Z,99.90
2018-03-27T08:11:41.051Z,99.90
2018-03-27T08:14:07.380Z,99.90
2018-03-27T08:16:33.691Z,99.90
2018-03-27T08:19:00.775Z,99.90
2018-03-27T08:21:27.107Z,99.90
2018-03-27T08:23:53.450Z,99.90
2018-03-27T08:26:19.772Z,99.90
2018-03-27T08:28:46.099Z,99.90
2018-03-27T08:31:12.455Z,99.90
2018-03-27T08:33:39.607Z,99.90
2018-03-27T08:36:05.988Z,99.90
2018-03-27T08:38:32.338Z,99.90
2018-03-27T08:40:58.654Z,99.90
2018-03-27T08:46:02.745Z,99.90
2018-03-27T08:48:29.340Z,99.90
2018-03-27T08:50:55.680Z,99.90
2018-03-27T08:53:22.001Z,99.90
2018-03-27T08:55:48.363Z,99.90
2018-03-27T08:58:14.684Z,99.90
2018-03-27T09:00:41.200Z,99.90
2018-03-27T09:03:07.520Z,99.90
2018-03-27T09:05:33.829Z,99.90
2018-03-27T09:08:00.187Z,99.90
2018-03-27T09:10:26.487Z,99.90
2018-03-27T09:12:52.824Z,99.90
2018-03-27T09:15:19.175Z,99.90
2018-03-27T09:17:45.508Z,99.90
2018-03-27T09:20:12.029Z,99.90
2018-03-27T09:22:39.138Z,99.90
2018-03-27T09:25:05.467Z,99.90
2018-03-27T09:27:31.810Z,99.90
2018-03-27T09:29:58.132Z,99.90
2018-03-27T09:32:24.496Z,99.90
2018-03-27T09:34:50.843Z,99.90
2018-03-27T09:37:17.158Z,99.90
2018-03-27T09:39:43.526Z,99.90
2018-03-27T09:42:09.858Z,99.90
2018-03-27T09:44:36.938Z,99.90
2018-03-27T09:47:03.262Z,99.90
2018-03-27T09:49:29.693Z,99.90
2018-03-27T09:51:56.012Z,99.90
2018-03-27T09:54:22.391Z,99.90
2018-03-27T09:56:48.711Z,99.90
2018-03-27T09:59:15.076Z,99.90
2018-03-27T10:01:41.430Z,99.90
2018-03-27T10:04:07.893Z,99.90
2018-03-27T10:06:35.157Z,99.90
2018-03-27T10:09:01.803Z,99.90
2018-03-27T10:11:28.439Z,99.90
2018-03-27T10:13:54.815Z,99.90
2018-03-27T10:16:21.095Z,99.90
2018-03-27T10:18:47.448Z,99.90
2018-03-27T10:21:13.762Z,99.90
2018-03-27T10:23:40.110Z,99.90
2018-03-27T10:26:07.189Z,99.90
2018-03-27T10:28:33.541Z,99.90
2018-03-27T10:30:59.865Z,99.90
2018-03-27T10:33:26.278Z,99.90
2018-03-27T10:35:52.625Z,99.90
2018-03-27T10:38:18.992Z,99.90
2018-03-27T10:40:45.294Z,99.90
2018-03-27T10:43:11.634Z,99.90
2018-03-27T10:45:37.980Z,99.90
2018-03-27T10:48:04.304Z,99.90
2018-03-27T10:50:30.643Z,99.90
2018-03-27T10:52:56.983Z,99.90
2018-03-27T10:55:23.364Z,99.90
2018-03-27T10:57:49.750Z,99.90
2018-03-27T11:00:16.669Z,99.90
2018-03-27T11:02:42.985Z,99.90
2018-03-27T11:05:09.328Z,99.90
2018-03-27T11:07:35.682Z,99.90
2018-03-27T11:10:03.587Z,99.90
2018-03-27T11:12:30.617Z,99.90
2018-03-27T11:14:56.942Z,99.90
2018-03-27T11:17:23.271Z,99.90
2018-03-27T11:19:49.571Z,99.90
2018-03-27T11:22:15.899Z,99.90
2018-03-27T11:24:42.983Z,99.90
2018-03-27T11:27:09.339Z,99.90
2018-03-27T11:29:35.665Z,99.90
2018-03-27T11:32:02.027Z,99.90
2018-03-27T11:34:29.096Z,99.90
2018-03-27T11:36:55.687Z,99.90
2018-03-27T11:39:22.036Z,99.90
2018-03-27T11:41:48.660Z,99.90
2018-03-27T11:44:15.801Z,99.90
2018-03-27T11:46:42.161Z,99.90
2018-03-27T11:49:09.258Z,99.90
2018-03-27T11:51:35.817Z,99.90
2018-03-27T11:54:02.176Z,99.90
2018-03-27T11:56:29.474Z,99.90
2018-03-27T11:58:55.839Z,99.90
2018-03-27T12:01:22.950Z,99.90
2018-03-27T12:03:49.496Z,99.90
2018-03-27T12:06:16.095Z,99.90
2018-03-27T12:08:42.428Z,99.90
2018-03-27T12:11:08.944Z,99.90
2018-03-27T12:13:36.012Z,99.90
2018-03-27T12:16:02.351Z,99.90
2018-03-27T12:18:28.701Z,99.90
2018-03-27T12:20:55.033Z,99.90
2018-03-27T12:23:21.382Z,99.90
2018-03-27T12:25:47.699Z,99.90
2018-03-27T12:28:14.075Z,99.90
2018-03-27T12:30:41.134Z,99.90
2018-03-27T12:33:08.217Z,99.90
2018-03-27T12:35:34.614Z,99.90
2018-03-27T12:38:00.954Z,99.90
2018-03-27T12:40:27.336Z,99.90
2018-03-27T12:42:53.689Z,99.90
2018-03-27T12:45:21.008Z,99.90
2018-03-27T12:47:47.404Z,99.90
2018-03-27T12:50:14.422Z,99.90
2018-03-27T12:52:41.121Z,99.90
2018-03-27T12:55:07.449Z,99.90
2018-03-27T12:57:33.800Z,99.90
2018-03-27T13:00:00.139Z,99.90
2018-03-27T13:02:27.225Z,99.90
2018-03-27T13:04:53.581Z,99.90
2018-03-27T13:07:19.912Z,99.90
2018-03-27T13:09:46.251Z,99.90
2018-03-27T13:12:12.572Z,99.90
2018-03-27T13:14:38.908Z,99.90
2018-03-27T13:17:05.264Z,99.90
2018-03-27T13:19:31.767Z,99.90
2018-03-27T13:21:58.102Z,99.90
2018-03-27T13:24:24.433Z,99.90
2018-03-27T13:26:50.787Z,99.90
2018-03-27T13:29:17.851Z,99.90
2018-03-27T13:31:45.265Z,99.90
2018-03-27T13:34:11.600Z,99.90
2018-03-27T13:36:37.974Z,99.90
2018-03-27T13:39:04.367Z,99.90
2018-03-27T13:41:31.480Z,99.90
2018-03-27T13:43:57.883Z,99.90
2018-03-27T13:46:24.225Z,99.90
2018-03-27T13:48:50.588Z,99.90
2018-03-27T13:51:17.222Z,99.90
2018-03-27T13:53:43.527Z,99.90
2018-03-27T13:56:09.859Z,99.90
2018-03-27T13:58:36.232Z,99.90
2018-03-27T14:01:03.529Z,99.90
2018-03-27T14:03:29.894Z,99.90
2018-03-27T14:05:56.244Z,99.90
2018-03-27T14:08:22.575Z,99.90
2018-03-27T14:10:49.675Z,99.90
2018-03-27T14:13:16.015Z,99.90
2018-03-27T14:15:42.333Z,99.90
2018-03-27T14:18:08.677Z,99.90
2018-03-27T14:20:35.059Z,99.90
2018-03-27T14:23:02.120Z,99.00
2018-03-27T14:25:28.477Z,98.90
2018-03-27T14:27:54.806Z,98.30
2018-03-27T14:30:21.461Z,98.30
2018-03-27T14:32:47.799Z,97.60
2018-03-27T14:35:14.121Z,97.70
2018-03-27T14:37:40.498Z,97.00
2018-03-27T14:40:07.543Z,96.70
2018-03-27T14:42:34.632Z,96.80
2018-03-27T14:45:00.959Z,96.80
2018-03-27T14:47:27.300Z,96.90
2018-03-27T14:49:53.616Z,98.00
2018-03-27T14:52:19.991Z,98.40
2018-03-27T14:54:47.077Z,99.00
2018-03-27T14:57:13.638Z,98.70
2018-03-27T14:59:41.048Z,97.50
2018-03-27T15:02:07.383Z,97.50
2018-03-27T15:04:33.736Z,98.50
2018-03-27T15:07:00.076Z,97.80
2018-03-27T15:09:26.388Z,97.90
2018-03-27T15:11:52.747Z,97.50
2018-03-27T15:14:19.079Z,97.50
2018-03-27T15:16:45.719Z,97.30
2018-03-27T15:19:12.050Z,97.50
2018-03-27T15:21:38.376Z,97.50
2018-03-27T15:24:04.728Z,97.70
2018-03-27T15:26:31.805Z,98.20
2018-03-27T15:28:58.168Z,98.20
2018-03-27T15:31:24.502Z,98.40
2018-03-27T15:33:50.984Z,98.00
2018-03-27T15:36:18.046Z,97.20
2018-03-27T15:38:44.375Z,97.10
2018-03-27T15:41:10.710Z,96.90
2018-03-27T15:43:37.065Z,96.50
2018-03-27T15:46:03.409Z,96.50
2018-03-27T15:48:29.778Z,95.70
2018-03-27T15:50:56.840Z,95.40
2018-03-27T15:53:23.931Z,95.70
2018-03-27T15:55:50.279Z,95.70
2018-03-27T15:58:16.587Z,95.50
2018-03-27T16:00:42.947Z,95.70
2018-03-27T16:03:10.019Z,95.60
2018-03-27T16:05:37.447Z,96.00
2018-03-27T16:08:04.514Z,96.00
2018-03-27T16:10:31.571Z,95.90
2018-03-27T16:12:57.922Z,95.90
2018-03-27T16:15:24.276Z,96.10
2018-03-27T16:17:50.736Z,95.80
2018-03-27T16:20:17.805Z,96.20
2018-03-27T16:22:44.164Z,96.10
2018-03-27T16:25:10.485Z,97.00
2018-03-27T16:27:36.816Z,97.00
2018-03-27T16:30:03.309Z,97.10
2018-03-27T16:32:30.380Z,98.10
2018-03-27T16:34:56.712Z,98.10
2018-03-27T16:37:23.062Z,98.30
2018-03-27T16:39:49.394Z,99.10
2018-03-27T16:42:15.827Z,99.20
2018-03-27T16:44:42.160Z,99.60
2018-03-27T16:47:08.491Z,99.90
2018-03-27T16:49:34.859Z,99.90
2018-03-27T16:52:01.175Z,99.90
2018-03-27T16:54:27.506Z,99.90
2018-03-27T16:56:53.844Z,99.90
2018-03-27T16:59:20.355Z,99.90
2018-03-27T17:01:46.674Z,99.90
2018-03-27T17:04:13.008Z,99.90
2018-03-27T17:06:39.404Z,99.90
2018-03-27T17:09:05.723Z,99.90
2018-03-27T17:11:32.298Z,99.90
2018-03-27T17:13:58.783Z,99.90
2018-03-27T17:16:25.176Z,99.90
2018-03-27T17:18:51.500Z,99.90
2018-03-27T17:21:17.883Z,99.90
2018-03-27T17:23:44.216Z,99.90
2018-03-27T17:26:10.538Z,99.90
2018-03-27T17:28:37.604Z,99.90
2018-03-27T17:31:03.915Z,99.90
2018-03-27T17:33:30.961Z,99.90
2018-03-27T17:35:58.388Z,99.90
2018-03-27T17:38:24.702Z,99.90
2018-03-27T17:40:51.788Z,99.90
2018-03-27T17:43:18.875Z,99.90
2018-03-27T17:45:45.183Z,99.90
2018-03-27T17:48:17.640Z,99.90
2018-03-27T17:50:44.733Z,99.90
2018-03-27T17:53:11.071Z,99.90
2018-03-27T17:55:51.527Z,99.90
2018-03-27T17:58:20.323Z,99.90
2018-03-27T18:00:46.637Z,99.90
2018-03-27T18:03:22.714Z,99.90
2018-03-27T18:05:57.139Z,99.90
2018-03-27T18:16:43.908Z,99.90
2018-03-27T18:19:16.583Z,99.90
2018-03-27T18:24:45.726Z,99.90
2018-03-27T18:27:14.339Z,99.90
2018-03-27T18:29:40.687Z,99.90
2018-03-27T18:32:07.043Z,99.90
2018-03-27T18:34:33.400Z,99.90
2018-03-27T18:37:00.508Z,99.90
2018-03-27T18:39:26.816Z,99.90
2018-03-27T18:41:53.170Z,99.90
2018-03-27T18:44:19.504Z,99.90
2018-03-27T18:46:45.975Z,99.90
2018-03-27T18:49:12.337Z,99.90
2018-03-27T18:51:38.698Z,99.90
2018-03-27T18:54:05.078Z,99.90
2018-03-27T18:56:31.501Z,99.90
2018-03-27T18:58:57.818Z,99.90
2018-03-27T19:01:24.983Z,99.90
2018-03-27T19:03:51.312Z,99.90
2018-03-27T19:06:17.635Z,99.90
2018-03-27T19:08:44.303Z,99.90
2018-03-27T19:11:10.630Z,99.90
2018-03-27T19:13:36.962Z,99.90
2018-03-27T19:16:03.331Z,99.90
2018-03-27T19:18:29.646Z,99.90
2018-03-27T19:20:56.065Z,99.90
2018-03-27T19:23:22.378Z,99.90
2018-03-27T19:25:48.928Z,99.90
2018-03-27T19:28:15.309Z,99.90
2018-03-27T19:30:41.716Z,99.90
2018-03-27T19:33:08.171Z,99.90
2018-03-27T19:35:34.504Z,99.90
2018-03-27T19:38:00.867Z,99.90
2018-03-27T19:40:27.164Z,99.90
2018-03-27T19:42:53.518Z,99.90
2018-03-27T19:45:20.692Z,99.90
2018-03-27T19:47:47.288Z,99.90
2018-03-27T19:50:13.615Z,99.90
2018-03-27T19:52:39.937Z,99.90
2018-03-27T19:55:07.000Z,99.90
2018-03-27T19:57:33.343Z,99.90
2018-03-27T19:59:59.679Z,99.90
2018-03-27T20:02:26.006Z,99.90
2018-03-27T20:04:52.546Z,99.90
2018-03-27T20:07:19.297Z,99.90
2018-03-27T20:09:45.612Z,99.90
2018-03-27T20:12:11.968Z,99.90
2018-03-27T20:14:39.066Z,99.90
2018-03-27T20:17:05.421Z,99.90
2018-03-27T20:19:31.761Z,99.90
2018-03-27T20:21:58.133Z,99.90
2018-03-27T20:24:25.206Z,99.90
2018-03-27T20:26:51.873Z,99.90
2018-03-27T20:29:18.207Z,99.90
2018-03-27T20:31:44.582Z,99.90
2018-03-27T20:34:11.657Z,99.90
2018-03-27T20:36:37.983Z,99.90
2018-03-27T20:39:04.337Z,99.90
2018-03-27T20:41:30.877Z,99.90
2018-03-27T20:43:57.514Z,99.90
2018-03-27T20:46:23.819Z,99.90
2018-03-27T20:48:50.147Z,99.90
2018-03-27T20:51:16.482Z,99.90
2018-03-27T20:53:42.834Z,99.90
2018-03-27T20:56:09.164Z,99.90
2018-03-27T20:58:35.499Z,99.90
2018-03-27T21:01:01.830Z,99.90
2018-03-27T21:03:28.175Z,99.90
2018-03-27T21:05:54.697Z,99.90
2018-03-27T21:08:21.098Z,99.90
2018-03-27T21:10:47.420Z,99.90
2018-03-27T21:13:13.783Z,99.90
2018-03-27T21:15:40.094Z,99.90
2018-03-27T21:18:06.429Z,99.90
2018-03-27T21:20:32.750Z,99.90
2018-03-27T21:22:59.394Z,99.90
2018-03-27T21:25:25.720Z,99.90
2018-03-27T21:27:52.044Z,99.90
2018-03-27T21:30:18.370Z,99.90
2018-03-27T21:32:44.713Z,99.90
2018-03-27T21:35:11.070Z,99.90
2018-03-27T21:37:37.675Z,99.90
2018-03-27T21:40:04.001Z,99.90
2018-03-27T21:42:30.338Z,99.90
2018-03-27T21:44:56.694Z,99.90
2018-03-27T21:47:23.755Z,99.90
2018-03-27T21:49:50.845Z,99.90
2018-03-27T21:52:17.200Z,99.90
2018-03-27T21:54:43.532Z,99.90
2018-03-27T21:57:09.878Z,99.90
2018-03-27T21:59:36.161Z,99.90
2018-03-27T22:02:02.531Z,99.90
2018-03-27T22:04:28.847Z,99.90
2018-03-27T22:06:55.463Z,99.90
2018-03-27T22:09:21.861Z,99.90
2018-03-27T22:11:48.161Z,99.90
2018-03-27T22:14:14.527Z,99.90
2018-03-27T22:16:40.851Z,99.90
2018-03-27T22:19:07.203Z,99.90
2018-03-27T22:21:33.524Z,99.90
2018-03-27T22:23:59.936Z,99.90
2018-03-27T22:26:27.029Z,99.90
2018-03-27T22:28:53.338Z,99.90
2018-03-27T22:31:19.663Z,99.90
2018-03-27T22:33:46.007Z,99.90
2018-03-27T22:36:12.348Z,99.90
2018-03-27T22:38:38.662Z,99.90
2018-03-27T22:41:05.218Z,99.90
2018-03-27T22:43:31.643Z,99.90
2018-03-27T22:45:57.972Z,99.90
2018-03-27T22:48:24.325Z,99.90
2018-03-27T22:50:50.683Z,99.90
2018-03-27T22:53:17.787Z,99.90
2018-03-27T22:55:44.329Z,99.90
2018-03-27T22:58:11.443Z,99.90
2018-03-27T23:00:37.762Z,99.90
2018-03-27T23:03:04.110Z,99.90
2018-03-27T23:05:30.423Z,99.90
2018-03-27T23:07:56.791Z,99.90
2018-03-27T23:10:23.150Z,99.90
2018-03-27T23:12:50.266Z,99.90
2018-03-27T23:15:16.590Z,99.90
2018-03-27T23:17:44.039Z,99.90
2018-03-27T23:20:10.358Z,99.90
2018-03-27T23:22:36.722Z,99.90
2018-03-27T23:25:03.238Z,99.90
2018-03-27T23:27:29.590Z,99.90
2018-03-27T23:29:55.951Z,99.90
2018-03-27T23:32:22.252Z,99.90
2018-03-27T23:34:48.576Z,99.90
2018-03-27T23:37:14.939Z,99.90
2018-03-27T23:39:42.037Z,99.90
2018-03-27T23:42:08.363Z,99.90
2018-03-27T23:44:34.715Z,99.90
2018-03-27T23:47:01.050Z,99.90
2018-03-27T23:49:27.406Z,99.90
2018-03-27T23:51:53.731Z,99.90
2018-03-27T23:54:20.780Z,99.90
2018-03-27T23:56:47.125Z,99.90
2018-03-27T23:59:13.498Z,99.90
